Time;durP1;ratioP1;P1;durP2;ratioP2;P2;SDS_P1;SDS_P2;PMS_P1;PMS_P2;Temp;Humidity;BMP_temperature;BMP_pressure;BME280_temperature;BME280_humidity;BME280_pressure;Samples;Min_cycle;Max_cycle;Signal;HPM_P1;HPM_P2
2022/03/13 00:01:03;;;;;;;8.65;4.97;;;;;;;;;;5034804;28;20101;-69
2022/03/13 00:03:31;;;;;;;10.57;5.10;;;;;;;;;;5034159;28;20680;-71
2022/03/13 00:05:58;;;;;;;9.48;5.45;;;;;;;;;;5034226;28;20041;-70
2022/03/13 00:08:29;;;;;;;9.90;4.85;;;;;;;;;;5034221;28;20471;-71
2022/03/13 00:10:59;;;;;;;9.07;4.38;;;;;;;;;;5034064;28;20029;-71
2022/03/13 00:13:31;;;;;;;8.57;4.80;;;;;;;;;;5032725;28;20056;-71
2022/03/13 00:15:57;;;;;;;7.68;4.35;;;;;;;;;;5015887;28;20021;-70
2022/03/13 00:18:23;;;;;;;9.10;4.85;;;;;;;;;;5033957;28;20099;-70
2022/03/13 00:20:51;;;;;;;8.90;5.10;;;;;;;;;;5034237;28;20495;-70
2022/03/13 00:23:18;;;;;;;9.70;4.70;;;;;;;;;;5033659;28;20025;-70
2022/03/13 00:25:44;;;;;;;15.77;5.40;;;;;;;;;;5034875;28;20048;-70
2022/03/13 00:28:11;;;;;;;7.45;4.60;;;;;;;;;;5035772;28;20033;-70
2022/03/13 00:30:37;;;;;;;7.88;4.05;;;;;;;;;;5033957;28;20104;-70
2022/03/13 00:33:04;;;;;;;8.02;4.80;;;;;;;;;;5033648;28;20028;-70
2022/03/13 00:35:30;;;;;;;7.50;4.28;;;;;;;;;;5033506;28;20061;-70
2022/03/13 00:37:56;;;;;;;8.18;4.68;;;;;;;;;;5033502;28;20052;-70
2022/03/13 00:40:22;;;;;;;8.80;4.40;;;;;;;;;;5033606;28;20037;-70
2022/03/13 00:42:49;;;;;;;10.23;4.50;;;;;;;;;;5033686;28;20022;-70
2022/03/13 00:45:15;;;;;;;8.85;4.80;;;;;;;;;;5033563;28;20130;-70
2022/03/13 00:47:41;;;;;;;7.32;4.28;;;;;;;;;;5033209;28;20187;-70
2022/03/13 00:50:07;;;;;;;8.10;4.43;;;;;;;;;;5033150;28;20040;-70
2022/03/13 00:52:33;;;;;;;11.02;4.70;;;;;;;;;;5033542;28;20384;-70
2022/03/13 00:54:59;;;;;;;9.27;4.72;;;;;;;;;;5032768;28;20044;-71
2022/03/13 00:57:25;;;;;;;10.57;4.55;;;;;;;;;;5033159;28;20017;-71
2022/03/13 00:59:51;;;;;;;8.88;4.68;;;;;;;;;;5033184;28;20021;-70
2022/03/13 01:02:18;;;;;;;9.90;4.88;;;;;;;;;;5033780;28;20055;-70
2022/03/13 01:04:44;;;;;;;9.02;5.00;;;;;;;;;;5033470;28;20040;-70
2022/03/13 01:07:10;;;;;;;10.70;4.75;;;;;;;;;;5034073;28;20056;-70
2022/03/13 01:09:37;;;;;;;11.85;5.00;;;;;;;;;;5020082;28;20036;-70
2022/03/13 01:12:03;;;;;;;8.18;4.32;;;;;;;;;;5039705;28;20418;-71
2022/03/13 01:14:32;;;;;;;8.65;4.50;;;;;;;;;;5038280;28;20081;-70
2022/03/13 01:17:04;;;;;;;9.48;4.57;;;;;;;;;;5035447;28;20094;-70
2022/03/13 01:19:30;;;;;;;10.70;5.25;;;;;;;;;;5035823;28;20083;-70
2022/03/13 01:21:56;;;;;;;9.65;4.60;;;;;;;;;;5036298;28;20083;-70
2022/03/13 01:24:43;;;;;;;8.45;4.45;;;;;;;;;;5038970;28;20120;-70
2022/03/13 01:27:10;;;;;;;8.93;4.47;;;;;;;;;;5039345;28;20076;-71
2022/03/13 01:29:36;;;;;;;7.57;4.18;;;;;;;;;;5038238;28;20075;-70
2022/03/13 01:32:02;;;;;;;6.63;4.45;;;;;;;;;;5036744;28;20041;-70
2022/03/13 01:34:41;;;;;;;9.40;4.20;;;;;;;;;;5035713;28;20112;-69
2022/03/13 01:37:09;;;;;;;9.05;4.60;;;;;;;;;;5036124;28;20420;-70
2022/03/13 01:39:35;;;;;;;11.80;5.30;;;;;;;;;;5036074;28;20025;-70
2022/03/13 01:42:01;;;;;;;13.55;5.25;;;;;;;;;;5038674;28;20026;-70
2022/03/13 01:44:27;;;;;;;9.82;4.70;;;;;;;;;;5037012;28;20026;-69
2022/03/13 01:46:53;;;;;;;8.55;4.55;;;;;;;;;;5034305;28;20026;-69
2022/03/13 01:49:20;;;;;;;12.68;4.93;;;;;;;;;;5032438;28;20027;-70
2022/03/13 01:51:46;;;;;;;9.93;4.65;;;;;;;;;;5032485;28;20083;-70
2022/03/13 01:54:12;;;;;;;8.63;4.32;;;;;;;;;;5032195;28;20029;-69
2022/03/13 01:56:39;;;;;;;8.88;4.63;;;;;;;;;;5032277;28;20045;-69
2022/03/13 01:59:06;;;;;;;10.20;4.53;;;;;;;;;;5032223;28;20104;-69
2022/03/13 02:01:32;;;;;;;7.60;4.15;;;;;;;;;;5032038;28;20022;-69
2022/03/13 02:03:58;;;;;;;8.52;4.25;;;;;;;;;;5028919;28;20029;-68
2022/03/13 02:06:25;;;;;;;10.60;5.07;;;;;;;;;;5031996;28;20030;-69
2022/03/13 02:08:51;;;;;;;7.68;4.43;;;;;;;;;;5031946;28;20370;-70
2022/03/13 02:11:21;;;;;;;10.45;4.80;;;;;;;;;;5033106;28;20021;-70
2022/03/13 02:13:48;;;;;;;6.18;3.38;;;;;;;;;;5033044;28;20029;-70
2022/03/13 02:16:15;;;;;;;13.98;5.22;;;;;;;;;;5031574;28;20025;-70
2022/03/13 02:18:41;;;;;;;6.75;4.05;;;;;;;;;;5032403;28;20121;-70
2022/03/13 02:21:07;;;;;;;9.48;4.10;;;;;;;;;;5032937;28;20063;-70
2022/03/13 02:23:33;;;;;;;9.95;4.60;;;;;;;;;;5034427;28;20109;-70
2022/03/13 02:26:00;;;;;;;11.80;4.60;;;;;;;;;;5034093;28;20026;-70
2022/03/13 02:28:27;;;;;;;8.75;4.55;;;;;;;;;;5033462;28;20391;-70
2022/03/13 02:30:56;;;;;;;8.25;4.65;;;;;;;;;;5031963;28;20112;-70
2022/03/13 02:33:22;;;;;;;7.38;4.38;;;;;;;;;;5031468;28;20213;-70
2022/03/13 02:35:51;;;;;;;10.52;4.68;;;;;;;;;;5031289;28;20026;-70
2022/03/13 02:38:17;;;;;;;9.15;4.30;;;;;;;;;;5035394;28;20151;-70
2022/03/13 02:40:43;;;;;;;9.18;4.80;;;;;;;;;;5035961;28;20481;-70
2022/03/13 02:43:09;;;;;;;9.25;4.72;;;;;;;;;;5035447;28;20503;-70
2022/03/13 02:45:37;;;;;;;14.13;5.15;;;;;;;;;;5035434;28;20403;-70
2022/03/13 02:48:04;;;;;;;9.60;4.88;;;;;;;;;;5035622;28;20032;-70
2022/03/13 02:50:30;;;;;;;10.65;4.57;;;;;;;;;;5035269;28;20037;-69
2022/03/13 02:52:56;;;;;;;9.52;4.53;;;;;;;;;;5035373;28;20766;-69
2022/03/13 02:55:22;;;;;;;11.07;4.55;;;;;;;;;;5035480;28;20075;-69
2022/03/13 02:57:48;;;;;;;9.60;4.95;;;;;;;;;;5035304;28;20056;-69
2022/03/13 03:00:16;;;;;;;9.40;4.70;;;;;;;;;;5035192;28;20533;-70
2022/03/13 03:02:42;;;;;;;12.52;4.78;;;;;;;;;;5035169;28;20059;-70
2022/03/13 03:05:08;;;;;;;9.07;4.22;;;;;;;;;;5035207;28;20108;-70
2022/03/13 03:07:35;;;;;;;10.23;4.90;;;;;;;;;;5035054;28;20044;-70
2022/03/13 03:10:01;;;;;;;8.77;5.07;;;;;;;;;;5035196;28;20476;-70
2022/03/13 03:12:27;;;;;;;8.15;4.30;;;;;;;;;;5035129;28;20026;-70
2022/03/13 03:14:54;;;;;;;11.32;5.35;;;;;;;;;;5034883;28;20083;-70
2022/03/13 03:17:20;;;;;;;8.40;4.40;;;;;;;;;;5057432;22;20128;-68
2022/03/13 03:19:46;;;;;;;8.95;4.72;;;;;;;;;;5034736;28;20432;-69
2022/03/13 03:22:12;;;;;;;8.90;4.93;;;;;;;;;;5034699;28;20049;-69
2022/03/13 03:24:38;;;;;;;8.50;4.57;;;;;;;;;;5034525;28;20029;-69
2022/03/13 03:27:04;;;;;;;10.75;4.90;;;;;;;;;;5034756;28;20040;-68
2022/03/13 03:29:30;;;;;;;10.55;4.65;;;;;;;;;;5035073;28;20398;-67
2022/03/13 03:31:57;;;;;;;10.43;4.93;;;;;;;;;;5034647;28;20021;-68
2022/03/13 03:34:24;;;;;;;10.25;5.15;;;;;;;;;;5034286;28;20025;-68
2022/03/13 03:36:51;;;;;;;11.73;5.15;;;;;;;;;;5034407;28;20204;-70
2022/03/13 03:39:18;;;;;;;8.73;4.93;;;;;;;;;;5034464;28;20033;-68
2022/03/13 03:41:45;;;;;;;11.48;4.82;;;;;;;;;;5034462;28;20029;-70
2022/03/13 03:44:11;;;;;;;7.32;4.32;;;;;;;;;;5034706;28;20094;-68
2022/03/13 03:46:38;;;;;;;9.85;5.13;;;;;;;;;;5034268;28;20026;-67
2022/03/13 03:49:04;;;;;;;9.60;4.07;;;;;;;;;;5034341;28;20088;-66
2022/03/13 03:51:30;;;;;;;7.00;4.40;;;;;;;;;;5016355;28;20026;-68
2022/03/13 03:53:56;;;;;;;9.48;4.25;;;;;;;;;;5033773;28;20124;-66
2022/03/13 03:56:22;;;;;;;9.05;4.60;;;;;;;;;;5034066;28;20026;-67
2022/03/13 03:58:48;;;;;;;9.23;4.70;;;;;;;;;;5034234;28;20030;-68
2022/03/13 04:01:15;;;;;;;9.27;4.60;;;;;;;;;;5034024;28;20033;-68
2022/03/13 04:03:40;;;;;;;11.38;4.65;;;;;;;;;;5033649;28;20396;-68
2022/03/13 04:06:06;;;;;;;10.82;4.97;;;;;;;;;;5033733;28;20167;-67
2022/03/13 04:08:33;;;;;;;9.43;5.25;;;;;;;;;;5033800;28;20399;-67
2022/03/13 04:11:00;;;;;;;13.68;4.97;;;;;;;;;;5033956;28;20068;-68
2022/03/13 04:13:26;;;;;;;10.30;4.53;;;;;;;;;;5033824;28;20036;-67
2022/03/13 04:15:52;;;;;;;6.90;4.15;;;;;;;;;;5033703;28;20423;-68
2022/03/13 04:18:19;;;;;;;9.95;4.47;;;;;;;;;;5034215;28;20497;-67
2022/03/13 04:20:45;;;;;;;8.23;4.50;;;;;;;;;;5033878;28;20030;-68
2022/03/13 04:23:11;;;;;;;11.00;4.70;;;;;;;;;;5033457;28;20083;-68
2022/03/13 04:25:38;;;;;;;7.22;3.85;;;;;;;;;;5033945;28;20040;-67
2022/03/13 04:28:04;;;;;;;10.65;4.97;;;;;;;;;;5033544;28;20589;-68
2022/03/13 04:30:31;;;;;;;9.32;4.15;;;;;;;;;;5033638;28;20033;-67
2022/03/13 04:32:57;;;;;;;9.63;5.05;;;;;;;;;;5033367;28;20053;-68
2022/03/13 04:35:24;;;;;;;9.93;5.20;;;;;;;;;;5033100;28;20033;-68
2022/03/13 04:37:50;;;;;;;8.40;4.65;;;;;;;;;;5033359;28;20064;-70
2022/03/13 04:40:16;;;;;;;12.60;5.32;;;;;;;;;;5033313;28;20025;-69
2022/03/13 04:42:42;;;;;;;11.88;5.60;;;;;;;;;;5033275;28;20025;-68
2022/03/13 04:45:09;;;;;;;10.90;5.30;;;;;;;;;;5015437;28;20021;-67
2022/03/13 04:47:34;;;;;;;10.38;5.15;;;;;;;;;;5015222;28;20406;-68
2022/03/13 04:50:01;;;;;;;7.53;4.53;;;;;;;;;;5033363;28;20034;-68
2022/03/13 04:52:27;;;;;;;10.73;4.85;;;;;;;;;;5033164;28;20038;-67
2022/03/13 04:54:53;;;;;;;16.02;5.60;;;;;;;;;;5032562;28;20061;-68
2022/03/13 04:57:20;;;;;;;9.20;4.80;;;;;;;;;;5032797;28;20040;-67
2022/03/13 04:59:46;;;;;;;10.30;4.97;;;;;;;;;;5032223;28;20021;-68
2022/03/13 05:02:12;;;;;;;9.93;5.45;;;;;;;;;;5032700;28;20169;-68
2022/03/13 05:04:38;;;;;;;7.97;4.80;;;;;;;;;;5032543;28;20029;-68
2022/03/13 05:07:06;;;;;;;9.40;4.05;;;;;;;;;;5032581;28;20037;-68
2022/03/13 05:09:32;;;;;;;9.63;5.22;;;;;;;;;;5032810;28;20033;-65
2022/03/13 05:12:00;;;;;;;11.57;5.95;;;;;;;;;;5032505;28;20076;-68
2022/03/13 05:14:26;;;;;;;12.07;5.00;;;;;;;;;;5014525;28;20025;-68
2022/03/13 05:16:52;;;;;;;12.40;6.22;;;;;;;;;;5032182;28;20470;-67
2022/03/13 05:19:19;;;;;;;14.60;5.32;;;;;;;;;;5032436;28;20383;-67
2022/03/13 05:21:45;;;;;;;10.75;5.40;;;;;;;;;;5014532;28;20068;-68
2022/03/13 05:24:11;;;;;;;9.52;5.13;;;;;;;;;;5032047;28;20030;-69
2022/03/13 05:26:37;;;;;;;9.65;5.15;;;;;;;;;;5032046;28;20033;-66
2022/03/13 05:29:04;;;;;;;9.35;5.38;;;;;;;;;;5032154;28;20109;-67
2022/03/13 05:31:30;;;;;;;7.85;4.82;;;;;;;;;;5032017;28;20034;-68
2022/03/13 05:33:56;;;;;;;14.15;5.45;;;;;;;;;;5031949;28;20086;-68
2022/03/13 05:36:22;;;;;;;10.38;5.50;;;;;;;;;;5032089;28;20057;-69
2022/03/13 05:38:47;;;;;;;9.77;5.03;;;;;;;;;;5032187;28;20029;-68
2022/03/13 05:41:13;;;;;;;10.43;5.30;;;;;;;;;;5032107;28;20055;-69
2022/03/13 05:43:43;;;;;;;9.93;5.70;;;;;;;;;;5032001;28;20056;-68
2022/03/13 05:46:09;;;;;;;13.10;5.68;;;;;;;;;;5032051;28;20025;-67
2022/03/13 05:48:36;;;;;;;12.13;5.45;;;;;;;;;;5032619;28;20014;-66
2022/03/13 05:51:02;;;;;;;9.20;4.93;;;;;;;;;;5032311;28;20144;-68
2022/03/13 05:53:29;;;;;;;8.10;4.70;;;;;;;;;;5031772;28;20507;-70
2022/03/13 05:55:55;;;;;;;10.68;5.25;;;;;;;;;;5031774;28;20105;-66
2022/03/13 05:58:21;;;;;;;11.18;5.43;;;;;;;;;;5031874;28;20455;-68
2022/03/13 06:01:01;;;;;;;12.45;5.97;;;;;;;;;;5031603;28;20021;-67
2022/03/13 06:03:27;;;;;;;9.80;5.07;;;;;;;;;;5031625;28;20032;-67
2022/03/13 06:05:55;;;;;;;11.45;4.97;;;;;;;;;;5031748;28;20079;-67
2022/03/13 06:08:21;;;;;;;10.52;5.32;;;;;;;;;;5014407;28;20412;-67
2022/03/13 06:10:47;;;;;;;13.20;5.97;;;;;;;;;;5014250;28;20105;-67
2022/03/13 06:13:13;;;;;;;9.57;5.68;;;;;;;;;;5031395;28;20502;-68
2022/03/13 06:15:39;;;;;;;9.45;5.07;;;;;;;;;;5031467;28;20083;-68
2022/03/13 06:18:05;;;;;;;9.38;6.25;;;;;;;;;;5031454;28;20033;-68
2022/03/13 06:20:31;;;;;;;11.48;5.45;;;;;;;;;;5031589;28;20022;-68
2022/03/13 06:22:59;;;;;;;10.40;5.55;;;;;;;;;;5031394;28;20033;-68
2022/03/13 06:25:25;;;;;;;9.32;4.70;;;;;;;;;;5031396;28;20045;-68
2022/03/13 06:27:51;;;;;;;10.25;5.47;;;;;;;;;;5031246;28;20029;-68
2022/03/13 06:30:19;;;;;;;9.50;5.57;;;;;;;;;;5031488;28;20036;-68
2022/03/13 06:32:47;;;;;;;9.18;5.65;;;;;;;;;;5031492;28;20030;-70
2022/03/13 06:35:13;;;;;;;7.53;4.90;;;;;;;;;;5031500;28;20036;-68
2022/03/13 06:37:39;;;;;;;8.48;5.10;;;;;;;;;;5031782;28;20039;-67
2022/03/13 06:40:06;;;;;;;9.40;5.88;;;;;;;;;;5031475;28;20033;-69
2022/03/13 06:42:33;;;;;;;10.27;4.90;;;;;;;;;;5031431;28;20021;-68
2022/03/13 06:44:59;;;;;;;9.27;5.45;;;;;;;;;;5031532;28;20022;-67
2022/03/13 06:47:25;;;;;;;10.23;5.95;;;;;;;;;;5031508;28;20040;-67
2022/03/13 06:49:51;;;;;;;8.93;5.53;;;;;;;;;;5031510;28;20025;-67
2022/03/13 06:52:17;;;;;;;9.88;5.38;;;;;;;;;;5031416;28;20101;-67
2022/03/13 06:54:43;;;;;;;10.18;5.70;;;;;;;;;;5013371;28;20022;-67
2022/03/13 06:57:09;;;;;;;9.45;5.40;;;;;;;;;;5031214;28;20480;-67
2022/03/13 06:59:35;;;;;;;9.48;5.53;;;;;;;;;;5031066;28;20056;-69
2022/03/13 07:02:01;;;;;;;8.80;5.57;;;;;;;;;;5031370;28;20017;-67
2022/03/13 07:04:27;;;;;;;17.05;5.55;;;;;;;;;;5013490;28;20083;-67
2022/03/13 07:06:53;;;;;;;10.48;5.65;;;;;;;;;;5031171;28;20032;-69
2022/03/13 07:09:19;;;;;;;9.18;6.03;;;;;;;;;;5031168;28;20104;-67
2022/03/13 07:11:47;;;;;;;9.27;5.72;;;;;;;;;;5031503;28;20048;-68
2022/03/13 07:14:13;;;;;;;9.60;5.65;;;;;;;;;;5031132;28;20100;-67
2022/03/13 07:16:39;;;;;;;10.77;5.70;;;;;;;;;;5031158;28;20064;-69
2022/03/13 07:19:05;;;;;;;12.10;5.75;;;;;;;;;;5013707;28;20022;-68
2022/03/13 07:21:31;;;;;;;12.07;5.68;;;;;;;;;;5031416;28;20029;-68
2022/03/13 07:23:57;;;;;;;13.13;5.68;;;;;;;;;;5034446;28;20100;-68
2022/03/13 07:26:23;;;;;;;10.50;5.13;;;;;;;;;;5035066;28;20029;-68
2022/03/13 07:28:49;;;;;;;10.77;5.72;;;;;;;;;;5034849;28;20036;-68
2022/03/13 07:31:15;;;;;;;12.80;5.10;;;;;;;;;;5034999;28;20087;-69
2022/03/13 07:33:41;;;;;;;8.43;6.25;;;;;;;;;;5034657;28;20029;-69
2022/03/13 07:36:07;;;;;;;8.00;5.18;;;;;;;;;;5037570;28;20029;-69
2022/03/13 07:38:33;;;;;;;8.77;5.35;;;;;;;;;;5036653;28;20027;-70
2022/03/13 07:40:59;;;;;;;7.80;5.38;;;;;;;;;;5036618;28;20025;-69
2022/03/13 07:43:25;;;;;;;12.63;6.22;;;;;;;;;;5035538;28;20027;-69
2022/03/13 07:45:51;;;;;;;9.68;5.10;;;;;;;;;;5034704;28;20028;-70
2022/03/13 07:48:17;;;;;;;9.05;5.53;;;;;;;;;;5034468;28;20029;-70
2022/03/13 07:50:43;;;;;;;9.38;5.43;;;;;;;;;;5034548;28;20029;-71
2022/03/13 07:53:10;;;;;;;12.43;6.43;;;;;;;;;;5034125;28;20022;-68
2022/03/13 07:55:39;;;;;;;9.93;5.57;;;;;;;;;;5034716;28;20025;-69
2022/03/13 07:58:04;;;;;;;8.07;5.28;;;;;;;;;;5034191;28;20030;-69
2022/03/13 08:00:30;;;;;;;13.25;5.65;;;;;;;;;;5034155;28;20029;-65
2022/03/13 08:02:56;;;;;;;8.80;5.95;;;;;;;;;;5034091;28;20483;-69
2022/03/13 08:05:22;;;;;;;10.50;5.72;;;;;;;;;;5013556;28;20021;-69
2022/03/13 08:07:49;;;;;;;8.90;4.85;;;;;;;;;;5033989;28;20029;-68
2022/03/13 08:10:23;;;;;;;9.98;5.38;;;;;;;;;;5016487;28;20025;-69
2022/03/13 08:12:49;;;;;;;13.18;6.63;;;;;;;;;;5034027;28;20415;-69
2022/03/13 08:15:15;;;;;;;8.48;5.38;;;;;;;;;;5033839;28;20029;-68
2022/03/13 08:17:41;;;;;;;11.40;5.70;;;;;;;;;;5016004;28;20483;-68
2022/03/13 08:20:08;;;;;;;9.00;5.18;;;;;;;;;;5034041;28;20561;-68
2022/03/13 08:22:34;;;;;;;9.15;5.47;;;;;;;;;;5016041;28;20118;-67
2022/03/13 08:25:00;;;;;;;11.38;6.45;;;;;;;;;;5015773;28;20022;-69
2022/03/13 08:27:26;;;;;;;9.60;5.22;;;;;;;;;;5033139;28;20029;-67
2022/03/13 08:29:52;;;;;;;7.70;5.25;;;;;;;;;;5016069;28;20030;-69
2022/03/13 08:32:18;;;;;;;9.35;5.60;;;;;;;;;;5033658;28;20025;-69
2022/03/13 08:34:45;;;;;;;8.88;5.63;;;;;;;;;;5031999;28;20029;-70
2022/03/13 08:37:12;;;;;;;10.68;5.40;;;;;;;;;;5015896;28;20577;-68
2022/03/13 08:39:38;;;;;;;12.98;5.85;;;;;;;;;;5033474;28;20029;-68
2022/03/13 08:42:04;;;;;;;11.23;6.10;;;;;;;;;;5015285;28;20029;-69
2022/03/13 08:44:31;;;;;;;8.68;5.65;;;;;;;;;;5015226;28;20025;-67
2022/03/13 08:46:57;;;;;;;9.05;5.15;;;;;;;;;;5033135;28;20021;-69
2022/03/13 08:49:23;;;;;;;11.48;5.40;;;;;;;;;;5033366;28;20026;-67
2022/03/13 08:51:49;;;;;;;9.68;5.60;;;;;;;;;;5033222;28;20359;-68
2022/03/13 08:54:16;;;;;;;10.38;5.53;;;;;;;;;;5033038;28;20034;-67
2022/03/13 08:56:42;;;;;;;9.23;5.80;;;;;;;;;;5015050;28;20510;-68
2022/03/13 08:59:08;;;;;;;8.55;5.88;;;;;;;;;;5033156;28;20344;-69
2022/03/13 09:01:35;;;;;;;10.27;6.13;;;;;;;;;;5032719;28;20131;-68
2022/03/13 09:04:01;;;;;;;7.95;5.78;;;;;;;;;;5032568;28;20021;-68
2022/03/13 09:06:27;;;;;;;10.48;5.50;;;;;;;;;;5032857;28;20376;-68
2022/03/13 09:08:53;;;;;;;9.05;5.70;;;;;;;;;;5032897;28;20029;-69
2022/03/13 09:11:19;;;;;;;10.48;5.63;;;;;;;;;;5032781;28;20036;-69
2022/03/13 09:13:45;;;;;;;10.32;5.85;;;;;;;;;;5032413;28;20048;-69
2022/03/13 09:18:46;;;;;;;8.10;5.53;;;;;;;;;;5054787;22;20077;-69
2022/03/13 09:21:12;;;;;;;11.23;5.50;;;;;;;;;;5033575;28;20022;-70
2022/03/13 09:23:38;;;;;;;9.38;5.45;;;;;;;;;;5032938;28;20022;-70
2022/03/13 09:26:04;;;;;;;10.07;5.38;;;;;;;;;;5032988;28;20049;-70
2022/03/13 09:28:30;;;;;;;10.98;5.30;;;;;;;;;;5032818;28;20514;-69
2022/03/13 09:30:57;;;;;;;11.07;5.10;;;;;;;;;;5015272;28;20075;-69
2022/03/13 09:33:22;;;;;;;10.27;5.45;;;;;;;;;;5032536;28;20060;-70
2022/03/13 09:35:49;;;;;;;9.00;4.72;;;;;;;;;;5032784;28;20068;-69
2022/03/13 09:38:16;;;;;;;10.93;5.32;;;;;;;;;;5014956;28;20087;-70
2022/03/13 09:40:42;;;;;;;8.52;4.80;;;;;;;;;;5032620;28;20036;-69
2022/03/13 09:43:08;;;;;;;7.78;4.72;;;;;;;;;;5032504;28;20041;-69
2022/03/13 09:45:34;;;;;;;9.05;5.00;;;;;;;;;;5032282;28;20030;-69
2022/03/13 09:48:03;;;;;;;7.95;4.78;;;;;;;;;;5032270;28;20021;-69
2022/03/13 09:50:30;;;;;;;9.48;4.63;;;;;;;;;;5032251;28;20422;-70
2022/03/13 09:52:56;;;;;;;10.60;4.88;;;;;;;;;;5032288;28;20036;-69
2022/03/13 09:55:22;;;;;;;10.00;5.78;;;;;;;;;;5032106;28;20030;-69
2022/03/13 09:57:48;;;;;;;6.88;4.75;;;;;;;;;;5032478;28;20566;-70
2022/03/13 10:00:18;;;;;;;5.60;4.53;;;;;;;;;;5032324;28;20060;-70
2022/03/13 10:02:44;;;;;;;6.30;4.32;;;;;;;;;;5032271;28;20026;-69
2022/03/13 10:05:11;;;;;;;9.23;4.80;;;;;;;;;;5032552;28;20423;-70
2022/03/13 10:08:07;;;;;;;5.88;4.32;;;;;;;;;;5033344;28;20029;-70
2022/03/13 10:10:44;;;;;;;8.05;5.03;;;;;;;;;;5010601;28;20125;-70
2022/03/13 10:13:10;;;;;;;10.18;4.25;;;;;;;;;;5033089;28;20030;-70
2022/03/13 10:15:48;;;;;;;5.57;4.10;;;;;;;;;;5033113;28;20030;-70
2022/03/13 10:18:17;;;;;;;9.40;4.85;;;;;;;;;;5032385;28;20036;-69
2022/03/13 10:20:43;;;;;;;6.80;5.03;;;;;;;;;;5031794;28;20502;-68
2022/03/13 10:23:11;;;;;;;7.22;4.50;;;;;;;;;;5031494;28;20372;-69
2022/03/13 10:25:41;;;;;;;8.00;4.40;;;;;;;;;;5014035;28;20022;-69
2022/03/13 10:28:18;;;;;;;6.68;4.60;;;;;;;;;;5031599;28;20399;-70
2022/03/13 10:30:45;;;;;;;8.00;4.68;;;;;;;;;;5032270;28;20080;-70
2022/03/13 10:33:11;;;;;;;6.68;4.65;;;;;;;;;;5032363;28;20026;-70
2022/03/13 10:35:38;;;;;;;8.48;4.88;;;;;;;;;;5032439;28;20021;-71
2022/03/13 10:38:18;;;;;;;10.25;5.05;;;;;;;;;;5034107;28;20068;-71
2022/03/13 10:40:45;;;;;;;8.70;5.40;;;;;;;;;;5034370;28;20468;-69
2022/03/13 10:43:12;;;;;;;9.35;5.50;;;;;;;;;;5031855;28;20361;-70
2022/03/13 10:45:42;;;;;;;8.35;4.60;;;;;;;;;;5032403;28;20033;-69
2022/03/13 10:48:32;;;;;;;7.63;5.00;;;;;;;;;;5032020;28;20021;-70
2022/03/13 10:51:02;;;;;;;9.70;5.55;;;;;;;;;;5033172;28;20017;-70
2022/03/13 10:53:29;;;;;;;8.63;4.70;;;;;;;;;;5033289;28;20052;-70
2022/03/13 10:56:01;;;;;;;6.85;4.43;;;;;;;;;;5032148;28;20029;-69
2022/03/13 10:58:30;;;;;;;9.00;5.13;;;;;;;;;;5016116;28;20039;-70
2022/03/13 11:01:05;;;;;;;8.43;4.90;;;;;;;;;;5035787;28;20022;-70
2022/03/13 11:03:33;;;;;;;6.35;4.32;;;;;;;;;;5035716;28;20026;-70
2022/03/13 11:05:59;;;;;;;8.48;4.95;;;;;;;;;;5035399;28;20036;-70
2022/03/13 11:08:26;;;;;;;8.90;5.15;;;;;;;;;;5035615;28;20029;-70
2022/03/13 11:10:53;;;;;;;8.82;4.80;;;;;;;;;;5035631;28;20029;-70
2022/03/13 11:13:21;;;;;;;8.63;4.95;;;;;;;;;;5035038;28;20143;-70
2022/03/13 11:15:47;;;;;;;8.52;5.40;;;;;;;;;;5017640;28;20380;-70
2022/03/13 11:18:16;;;;;;;7.05;4.55;;;;;;;;;;5035299;28;20060;-71
2022/03/13 11:20:42;;;;;;;8.15;5.20;;;;;;;;;;5017693;28;20022;-70
2022/03/13 11:23:09;;;;;;;9.77;5.15;;;;;;;;;;5034930;28;20033;-70
2022/03/13 11:25:38;;;;;;;7.10;4.60;;;;;;;;;;5035271;28;20040;-70
2022/03/13 11:28:05;;;;;;;9.07;5.68;;;;;;;;;;5035067;28;20017;-71
2022/03/13 11:30:34;;;;;;;8.75;5.68;;;;;;;;;;5017245;28;20402;-69
2022/03/13 11:33:02;;;;;;;8.45;4.95;;;;;;;;;;5017252;28;20018;-71
2022/03/13 11:35:30;;;;;;;8.63;5.10;;;;;;;;;;5034826;28;20029;-70
2022/03/13 11:38:16;;;;;;;8.75;5.40;;;;;;;;;;5017064;28;20026;-70
2022/03/13 11:40:42;;;;;;;6.65;4.30;;;;;;;;;;5034485;28;20061;-70
2022/03/13 11:43:10;;;;;;;10.23;5.43;;;;;;;;;;5034740;28;20022;-70
2022/03/13 11:45:39;;;;;;;8.32;5.10;;;;;;;;;;5034513;28;20160;-70
2022/03/13 11:48:05;;;;;;;9.98;4.57;;;;;;;;;;5034712;28;20029;-70
2022/03/13 11:50:52;;;;;;;11.05;5.18;;;;;;;;;;5034992;28;20049;-70
2022/03/13 11:53:23;;;;;;;10.63;4.60;;;;;;;;;;5034048;28;20025;-71
2022/03/13 11:55:57;;;;;;;9.40;4.90;;;;;;;;;;5034227;28;20622;-69
2022/03/13 11:58:42;;;;;;;8.05;4.63;;;;;;;;;;5034455;28;20021;-71
2022/03/13 12:01:09;;;;;;;7.88;4.50;;;;;;;;;;5032792;28;20032;-73
2022/03/13 12:03:35;;;;;;;7.22;4.80;;;;;;;;;;5031848;28;20126;-73
2022/03/13 12:06:01;;;;;;;7.25;4.72;;;;;;;;;;5031926;28;20372;-72
2022/03/13 12:08:46;;;;;;;9.02;5.43;;;;;;;;;;5032172;28;20025;-71
2022/03/13 12:11:34;;;;;;;8.63;4.53;;;;;;;;;;5020447;28;20029;-72
2022/03/13 12:14:00;;;;;;;8.60;5.13;;;;;;;;;;5031024;28;20021;-68
2022/03/13 12:16:26;;;;;;;8.65;4.85;;;;;;;;;;5017080;28;20389;-68
2022/03/13 12:18:58;;;;;;;7.07;5.22;;;;;;;;;;5012680;28;20392;-69
2022/03/13 12:21:24;;;;;;;8.50;4.68;;;;;;;;;;5013736;28;20029;-69
2022/03/13 12:23:52;;;;;;;9.95;4.75;;;;;;;;;;5014190;28;20022;-70
2022/03/13 12:26:19;;;;;;;7.65;4.47;;;;;;;;;;5039085;28;20025;-69
2022/03/13 12:28:45;;;;;;;10.48;4.43;;;;;;;;;;5038080;28;20037;-69
2022/03/13 12:31:12;;;;;;;8.35;4.45;;;;;;;;;;5036182;28;20021;-68
2022/03/13 12:33:39;;;;;;;10.65;4.80;;;;;;;;;;5053531;28;20048;-70
2022/03/13 12:36:05;;;;;;;9.38;4.78;;;;;;;;;;5053525;28;20033;-69
2022/03/13 12:38:32;;;;;;;7.70;4.63;;;;;;;;;;5053279;28;20032;-68
2022/03/13 12:40:59;;;;;;;7.18;4.22;;;;;;;;;;5035533;28;20049;-70
2022/03/13 12:43:42;;;;;;;6.88;5.10;;;;;;;;;;5050565;28;20088;-69
2022/03/13 12:46:10;;;;;;;9.90;4.70;;;;;;;;;;5033658;28;20451;-69
2022/03/13 12:48:38;;;;;;;8.38;4.28;;;;;;;;;;5033400;28;20041;-69
2022/03/13 12:51:04;;;;;;;8.98;5.50;;;;;;;;;;5015578;28;20049;-69
2022/03/13 12:53:31;;;;;;;6.28;4.50;;;;;;;;;;5033253;28;20044;-68
2022/03/13 12:55:57;;;;;;;6.60;4.43;;;;;;;;;;5033201;28;20460;-69
2022/03/13 12:58:42;;;;;;;7.05;4.68;;;;;;;;;;5033053;28;20030;-69
2022/03/13 13:01:18;;;;;;;6.75;4.18;;;;;;;;;;5033115;28;20102;-70
2022/03/13 13:03:51;;;;;;;7.00;4.25;;;;;;;;;;5032865;28;20025;-69
2022/03/13 13:06:30;;;;;;;8.85;5.03;;;;;;;;;;5032983;28;20026;-70
2022/03/13 13:08:56;;;;;;;8.45;4.32;;;;;;;;;;5032671;28;20096;-69
2022/03/13 13:11:29;;;;;;;8.80;4.93;;;;;;;;;;5032986;28;20037;-69
2022/03/13 13:13:59;;;;;;;10.93;5.18;;;;;;;;;;5032606;28;20029;-68
2022/03/13 13:16:28;;;;;;;8.57;4.80;;;;;;;;;;5009080;28;20518;-70
2022/03/13 13:18:54;;;;;;;7.18;4.47;;;;;;;;;;4995196;28;20029;-69
2022/03/13 13:21:32;;;;;;;9.90;5.07;;;;;;;;;;5012556;28;20022;-69
2022/03/13 13:23:58;;;;;;;6.55;4.22;;;;;;;;;;4994370;28;20028;-69
2022/03/13 13:26:39;;;;;;;8.57;4.75;;;;;;;;;;5012822;28;20034;-69
2022/03/13 13:29:05;;;;;;;9.20;4.55;;;;;;;;;;5012848;28;20029;-69
2022/03/13 13:31:31;;;;;;;10.48;4.88;;;;;;;;;;5012660;28;20104;-68
2022/03/13 13:33:58;;;;;;;8.60;4.43;;;;;;;;;;5012070;28;20032;-69
2022/03/13 13:36:24;;;;;;;7.32;4.55;;;;;;;;;;4994619;28;20129;-69
2022/03/13 13:39:04;;;;;;;9.15;5.07;;;;;;;;;;5012587;28;20453;-72
2022/03/13 13:41:32;;;;;;;6.72;4.25;;;;;;;;;;5012668;28;20499;-68
2022/03/13 13:43:58;;;;;;;7.18;4.18;;;;;;;;;;5012515;28;20096;-68
2022/03/13 13:46:30;;;;;;;7.55;4.35;;;;;;;;;;5012840;28;20437;-69
2022/03/13 13:48:56;;;;;;;7.50;4.85;;;;;;;;;;5031045;28;20053;-69
2022/03/13 13:51:27;;;;;;;7.93;4.40;;;;;;;;;;5024375;28;20068;-69
2022/03/13 13:54:22;;;;;;;8.80;4.43;;;;;;;;;;5023081;28;20030;-69
2022/03/13 13:56:52;;;;;;;6.35;4.53;;;;;;;;;;5028798;28;20033;-69
2022/03/13 13:59:27;;;;;;;5.10;3.80;;;;;;;;;;5032231;28;20442;-69
2022/03/13 14:02:15;;;;;;;7.35;4.72;;;;;;;;;;5014261;28;20021;-69
2022/03/13 14:04:47;;;;;;;7.43;4.40;;;;;;;;;;5031549;28;20026;-69
2022/03/13 14:07:13;;;;;;;8.57;4.53;;;;;;;;;;5032082;28;20051;-69
2022/03/13 14:09:39;;;;;;;7.32;4.68;;;;;;;;;;5032516;28;20029;-69
2022/03/13 14:12:07;;;;;;;7.97;4.55;;;;;;;;;;5031959;28;20120;-69
2022/03/13 14:14:33;;;;;;;5.72;4.18;;;;;;;;;;5025499;28;20029;-68
2022/03/13 14:16:59;;;;;;;6.38;4.70;;;;;;;;;;5031676;28;20063;-69
2022/03/13 14:19:30;;;;;;;8.02;4.68;;;;;;;;;;5031859;28;20079;-69
2022/03/13 14:21:56;;;;;;;9.27;4.68;;;;;;;;;;5032031;28;20332;-69
2022/03/13 14:24:23;;;;;;;9.30;4.47;;;;;;;;;;5031427;28;20029;-69
2022/03/13 14:26:49;;;;;;;7.95;4.70;;;;;;;;;;5013769;28;20480;-68
2022/03/13 14:29:15;;;;;;;10.30;4.10;;;;;;;;;;5031460;28;20052;-69
2022/03/13 14:31:41;;;;;;;6.22;4.18;;;;;;;;;;5030974;28;20032;-69
2022/03/13 14:34:07;;;;;;;6.90;4.32;;;;;;;;;;5013163;28;20119;-69
2022/03/13 14:36:34;;;;;;;7.47;3.92;;;;;;;;;;5031379;28;20029;-68
2022/03/13 14:39:00;;;;;;;8.27;4.05;;;;;;;;;;5013823;28;20026;-68
2022/03/13 14:41:26;;;;;;;5.72;4.03;;;;;;;;;;5029180;28;20030;-69
2022/03/13 14:43:55;;;;;;;6.90;4.50;;;;;;;;;;5013670;28;20104;-69